sensor_id;sensor_type;location;lat;lon;timestamp;temperature;humidity
65072;DHT22;51663;52.310;17.016;2022-08-21T00:00:27;35.70;42.30
65072;DHT22;51663;52.310;17.016;2022-08-21T00:03:40;35.40;42.70
65072;DHT22;51663;52.310;17.016;2022-08-21T00:06:42;35.20;43.20
65072;DHT22;51663;52.310;17.016;2022-08-21T00:09:45;35.30;43.20
65072;DHT22;51663;52.310;17.016;2022-08-21T00:12:47;35.60;42.80
65072;DHT22;51663;52.310;17.016;2022-08-21T00:15:50;35.50;42.90
65072;DHT22;51663;52.310;17.016;2022-08-21T00:18:52;35.50;42.80
65072;DHT22;51663;52.310;17.016;2022-08-21T00:21:54;35.70;42.50
65072;DHT22;51663;52.310;17.016;2022-08-21T00:24:56;35.90;41.70
65072;DHT22;51663;52.310;17.016;2022-08-21T00:27:59;36.20;41.30
65072;DHT22;51663;52.310;17.016;2022-08-21T00:31:03;36.00;41.10
65072;DHT22;51663;52.310;17.016;2022-08-21T00:34:06;36.20;40.90
65072;DHT22;51663;52.310;17.016;2022-08-21T00:37:09;36.60;40.50
65072;DHT22;51663;52.310;17.016;2022-08-21T00:40:17;36.60;40.30
65072;DHT22;51663;52.310;17.016;2022-08-21T00:43:23;36.30;39.70
65072;DHT22;51663;52.310;17.016;2022-08-21T00:46:26;36.20;40.30
65072;DHT22;51663;52.310;17.016;2022-08-21T00:49:29;36.00;40.50
65072;DHT22;51663;52.310;17.016;2022-08-21T00:52:33;36.00;40.70
65072;DHT22;51663;52.310;17.016;2022-08-21T00:55:36;35.80;40.40
65072;DHT22;51663;52.310;17.016;2022-08-21T00:58:41;36.20;40.10
65072;DHT22;51663;52.310;17.016;2022-08-21T01:01:45;36.10;40.10
65072;DHT22;51663;52.310;17.016;2022-08-21T01:04:47;35.90;40.30
65072;DHT22;51663;52.310;17.016;2022-08-21T01:07:50;35.70;40.70
65072;DHT22;51663;52.310;17.016;2022-08-21T01:10:52;35.50;41.20
65072;DHT22;51663;52.310;17.016;2022-08-21T01:13:55;35.50;41.10
65072;DHT22;51663;52.310;17.016;2022-08-21T01:16:59;35.40;41.20
65072;DHT22;51663;52.310;17.016;2022-08-21T01:20:06;35.50;40.90
65072;DHT22;51663;52.310;17.016;2022-08-21T01:23:08;35.70;40.90
65072;DHT22;51663;52.310;17.016;2022-08-21T01:26:14;36.00;40.50
65072;DHT22;51663;52.310;17.016;2022-08-21T01:29:48;36.00;40.10
65072;DHT22;51663;52.310;17.016;2022-08-21T01:32:54;35.90;40.30
65072;DHT22;51663;52.310;17.016;2022-08-21T01:35:56;35.90;40.00
65072;DHT22;51663;52.310;17.016;2022-08-21T01:38:59;35.90;40.20
65072;DHT22;51663;52.310;17.016;2022-08-21T01:42:01;36.00;40.10
65072;DHT22;51663;52.310;17.016;2022-08-21T01:45:06;35.60;40.50
65072;DHT22;51663;52.310;17.016;2022-08-21T01:48:08;35.20;41.10
65072;DHT22;51663;52.310;17.016;2022-08-21T01:51:11;34.70;41.90
65072;DHT22;51663;52.310;17.016;2022-08-21T01:54:13;34.90;42.20
65072;DHT22;51663;52.310;17.016;2022-08-21T01:57:15;34.80;42.00
65072;DHT22;51663;52.310;17.016;2022-08-21T02:00:20;34.90;42.20
65072;DHT22;51663;52.310;17.016;2022-08-21T02:03:24;35.30;41.00
65072;DHT22;51663;52.310;17.016;2022-08-21T02:06:37;35.30;41.20
65072;DHT22;51663;52.310;17.016;2022-08-21T02:09:39;34.90;41.60
65072;DHT22;51663;52.310;17.016;2022-08-21T02:12:43;34.70;42.20
65072;DHT22;51663;52.310;17.016;2022-08-21T02:15:46;34.70;42.70
65072;DHT22;51663;52.310;17.016;2022-08-21T02:18:48;34.70;42.40
65072;DHT22;51663;52.310;17.016;2022-08-21T02:21:50;34.80;42.00
65072;DHT22;51663;52.310;17.016;2022-08-21T02:24:52;34.80;42.50
65072;DHT22;51663;52.310;17.016;2022-08-21T02:27:57;35.00;42.20
65072;DHT22;51663;52.310;17.016;2022-08-21T02:30:59;35.00;42.00
65072;DHT22;51663;52.310;17.016;2022-08-21T02:34:02;34.90;42.30
65072;DHT22;51663;52.310;17.016;2022-08-21T02:37:04;34.60;42.50
65072;DHT22;51663;52.310;17.016;2022-08-21T02:40:07;34.90;42.30
65072;DHT22;51663;52.310;17.016;2022-08-21T02:43:11;35.20;41.60
65072;DHT22;51663;52.310;17.016;2022-08-21T02:46:15;35.50;41.90
65072;DHT22;51663;52.310;17.016;2022-08-21T02:49:18;35.40;41.30
65072;DHT22;51663;52.310;17.016;2022-08-21T02:52:21;35.30;41.30
65072;DHT22;51663;52.310;17.016;2022-08-21T02:55:25;35.30;41.10
65072;DHT22;51663;52.310;17.016;2022-08-21T02:58:32;35.50;41.20
65072;DHT22;51663;52.310;17.016;2022-08-21T03:01:34;35.60;41.00
65072;DHT22;51663;52.310;17.016;2022-08-21T03:04:38;35.10;41.30
65072;DHT22;51663;52.310;17.016;2022-08-21T03:07:48;34.90;41.60
65072;DHT22;51663;52.310;17.016;2022-08-21T03:10:52;35.20;41.80
65072;DHT22;51663;52.310;17.016;2022-08-21T03:13:54;35.10;41.70
65072;DHT22;51663;52.310;17.016;2022-08-21T03:16:56;35.20;41.60
65072;DHT22;51663;52.310;17.016;2022-08-21T03:19:58;35.20;41.10
65072;DHT22;51663;52.310;17.016;2022-08-21T03:23:01;35.10;41.40
65072;DHT22;51663;52.310;17.016;2022-08-21T03:26:13;34.60;41.70
65072;DHT22;51663;52.310;17.016;2022-08-21T03:29:17;34.40;42.40
65072;DHT22;51663;52.310;17.016;2022-08-21T03:32:19;34.50;42.10
65072;DHT22;51663;52.310;17.016;2022-08-21T03:35:21;34.50;42.00
65072;DHT22;51663;52.310;17.016;2022-08-21T03:38:23;34.70;42.10
65072;DHT22;51663;52.310;17.016;2022-08-21T03:41:28;35.10;41.60
65072;DHT22;51663;52.310;17.016;2022-08-21T03:44:30;35.20;41.00
65072;DHT22;51663;52.310;17.016;2022-08-21T03:47:33;35.10;41.00
65072;DHT22;51663;52.310;17.016;2022-08-21T03:50:40;35.10;41.00
65072;DHT22;51663;52.310;17.016;2022-08-21T03:53:42;34.90;41.30
65072;DHT22;51663;52.310;17.016;2022-08-21T03:56:44;35.10;41.10
65072;DHT22;51663;52.310;17.016;2022-08-21T03:59:47;35.10;41.00
65072;DHT22;51663;52.310;17.016;2022-08-21T04:02:49;35.20;40.90
65072;DHT22;51663;52.310;17.016;2022-08-21T04:05:52;35.00;40.90
65072;DHT22;51663;52.310;17.016;2022-08-21T04:08:54;34.90;41.40
65072;DHT22;51663;52.310;17.016;2022-08-21T04:11:58;34.60;42.10
65072;DHT22;51663;52.310;17.016;2022-08-21T04:15:00;35.00;41.40
65072;DHT22;51663;52.310;17.016;2022-08-21T04:18:04;35.00;42.20
65072;DHT22;51663;52.310;17.016;2022-08-21T04:21:09;35.20;41.10
65072;DHT22;51663;52.310;17.016;2022-08-21T04:24:12;35.30;40.60
65072;DHT22;51663;52.310;17.016;2022-08-21T04:27:14;34.60;41.90
65072;DHT22;51663;52.310;17.016;2022-08-21T04:30:16;35.10;41.50
65072;DHT22;51663;52.310;17.016;2022-08-21T04:33:19;35.60;40.70
65072;DHT22;51663;52.310;17.016;2022-08-21T04:36:21;35.00;40.00
65072;DHT22;51663;52.310;17.016;2022-08-21T04:39:25;34.70;41.40
65072;DHT22;51663;52.310;17.016;2022-08-21T04:42:30;34.70;41.90
65072;DHT22;51663;52.310;17.016;2022-08-21T04:45:35;35.10;41.20
65072;DHT22;51663;52.310;17.016;2022-08-21T04:48:38;35.00;41.10
65072;DHT22;51663;52.310;17.016;2022-08-21T04:51:40;34.50;41.60
65072;DHT22;51663;52.310;17.016;2022-08-21T04:54:44;34.40;42.60
65072;DHT22;51663;52.310;17.016;2022-08-21T04:57:47;34.80;41.50
65072;DHT22;51663;52.310;17.016;2022-08-21T05:00:52;34.70;41.60
65072;DHT22;51663;52.310;17.016;2022-08-21T05:03:58;34.50;42.00
65072;DHT22;51663;52.310;17.016;2022-08-21T05:07:03;34.30;42.30
65072;DHT22;51663;52.310;17.016;2022-08-21T05:10:07;34.10;42.90
65072;DHT22;51663;52.310;17.016;2022-08-21T05:13:12;34.20;42.60
65072;DHT22;51663;52.310;17.016;2022-08-21T05:16:14;34.00;43.00
65072;DHT22;51663;52.310;17.016;2022-08-21T05:19:37;33.50;44.10
65072;DHT22;51663;52.310;17.016;2022-08-21T05:22:40;33.50;44.20
65072;DHT22;51663;52.310;17.016;2022-08-21T05:25:42;32.80;45.10
65072;DHT22;51663;52.310;17.016;2022-08-21T05:28:46;32.40;46.10
65072;DHT22;51663;52.310;17.016;2022-08-21T05:31:48;32.40;46.30
65072;DHT22;51663;52.310;17.016;2022-08-21T05:34:51;32.50;46.00
65072;DHT22;51663;52.310;17.016;2022-08-21T05:37:53;33.00;45.10
65072;DHT22;51663;52.310;17.016;2022-08-21T05:40:55;33.50;44.40
65072;DHT22;51663;52.310;17.016;2022-08-21T05:43:57;33.50;44.30
65072;DHT22;51663;52.310;17.016;2022-08-21T05:47:05;33.60;44.10
65072;DHT22;51663;52.310;17.016;2022-08-21T05:50:07;34.30;43.40
65072;DHT22;51663;52.310;17.016;2022-08-21T05:53:10;34.40;42.80
65072;DHT22;51663;52.310;17.016;2022-08-21T05:56:13;34.30;43.40
65072;DHT22;51663;52.310;17.016;2022-08-21T05:59:15;34.60;42.80
65072;DHT22;51663;52.310;17.016;2022-08-21T06:02:18;34.70;42.20
65072;DHT22;51663;52.310;17.016;2022-08-21T06:05:21;34.30;43.20
65072;DHT22;51663;52.310;17.016;2022-08-21T06:08:38;34.20;43.40
65072;DHT22;51663;52.310;17.016;2022-08-21T06:11:40;33.90;43.60
65072;DHT22;51663;52.310;17.016;2022-08-21T06:14:43;33.60;44.20
65072;DHT22;51663;52.310;17.016;2022-08-21T06:17:44;33.70;44.10
65072;DHT22;51663;52.310;17.016;2022-08-21T06:20:47;33.90;44.00
65072;DHT22;51663;52.310;17.016;2022-08-21T06:23:49;34.00;43.80
65072;DHT22;51663;52.310;17.016;2022-08-21T06:26:51;33.90;43.70
65072;DHT22;51663;52.310;17.016;2022-08-21T06:29:53;34.00;44.00
65072;DHT22;51663;52.310;17.016;2022-08-21T06:32:58;34.10;43.80
65072;DHT22;51663;52.310;17.016;2022-08-21T06:36:00;34.00;43.50
65072;DHT22;51663;52.310;17.016;2022-08-21T06:39:03;34.20;43.10
65072;DHT22;51663;52.310;17.016;2022-08-21T06:42:25;34.70;43.00
65072;DHT22;51663;52.310;17.016;2022-08-21T06:45:29;34.80;42.50
65072;DHT22;51663;52.310;17.016;2022-08-21T06:48:33;34.90;42.50
65072;DHT22;51663;52.310;17.016;2022-08-21T06:51:35;35.00;42.00
65072;DHT22;51663;52.310;17.016;2022-08-21T06:54:38;35.10;41.90
65072;DHT22;51663;52.310;17.016;2022-08-21T06:57:41;34.90;42.40
65072;DHT22;51663;52.310;17.016;2022-08-21T07:00:50;35.20;41.90
65072;DHT22;51663;52.310;17.016;2022-08-21T07:03:53;35.90;40.70
65072;DHT22;51663;52.310;17.016;2022-08-21T07:06:55;36.10;39.90
65072;DHT22;51663;52.310;17.016;2022-08-21T07:09:57;36.00;39.20
65072;DHT22;51663;52.310;17.016;2022-08-21T07:12:59;36.00;39.30
65072;DHT22;51663;52.310;17.016;2022-08-21T07:16:03;36.00;39.40
65072;DHT22;51663;52.310;17.016;2022-08-21T07:19:05;36.00;39.00
65072;DHT22;51663;52.310;17.016;2022-08-21T07:22:07;36.00;39.00
65072;DHT22;51663;52.310;17.016;2022-08-21T07:25:09;36.00;38.90
65072;DHT22;51663;52.310;17.016;2022-08-21T07:28:11;36.00;38.90
65072;DHT22;51663;52.310;17.016;2022-08-21T07:31:15;36.10;38.70
65072;DHT22;51663;52.310;17.016;2022-08-21T07:34:17;36.00;38.80
65072;DHT22;51663;52.310;17.016;2022-08-21T07:37:19;35.90;38.30
65072;DHT22;51663;52.310;17.016;2022-08-21T07:40:22;35.70;38.90
65072;DHT22;51663;52.310;17.016;2022-08-21T07:43:25;35.60;39.30
65072;DHT22;51663;52.310;17.016;2022-08-21T07:46:27;35.30;39.30
65072;DHT22;51663;52.310;17.016;2022-08-21T07:49:29;35.70;39.40
65072;DHT22;51663;52.310;17.016;2022-08-21T07:52:32;35.90;39.30
65072;DHT22;51663;52.310;17.016;2022-08-21T07:55:34;36.20;38.60
65072;DHT22;51663;52.310;17.016;2022-08-21T07:58:37;36.30;38.30
65072;DHT22;51663;52.310;17.016;2022-08-21T08:01:39;36.40;37.70
65072;DHT22;51663;52.310;17.016;2022-08-21T08:04:41;36.50;38.10
65072;DHT22;51663;52.310;17.016;2022-08-21T08:07:52;36.50;38.00
65072;DHT22;51663;52.310;17.016;2022-08-21T08:10:56;36.70;37.60
65072;DHT22;51663;52.310;17.016;2022-08-21T08:13:59;36.90;37.60
65072;DHT22;51663;52.310;17.016;2022-08-21T08:17:01;36.90;37.60
65072;DHT22;51663;52.310;17.016;2022-08-21T08:20:08;36.80;37.80
65072;DHT22;51663;52.310;17.016;2022-08-21T08:23:12;36.90;37.10
65072;DHT22;51663;52.310;17.016;2022-08-21T08:26:14;37.00;37.50
65072;DHT22;51663;52.310;17.016;2022-08-21T08:29:17;37.20;37.50
65072;DHT22;51663;52.310;17.016;2022-08-21T08:32:20;37.30;37.00
65072;DHT22;51663;52.310;17.016;2022-08-21T08:35:23;37.40;36.60
65072;DHT22;51663;52.310;17.016;2022-08-21T08:38:26;37.30;36.50
65072;DHT22;51663;52.310;17.016;2022-08-21T08:41:29;37.30;37.10
65072;DHT22;51663;52.310;17.016;2022-08-21T08:44:32;37.30;36.90
65072;DHT22;51663;52.310;17.016;2022-08-21T08:47:42;37.40;37.00
65072;DHT22;51663;52.310;17.016;2022-08-21T08:50:55;37.30;36.70
65072;DHT22;51663;52.310;17.016;2022-08-21T08:54:00;37.30;36.60
65072;DHT22;51663;52.310;17.016;2022-08-21T08:57:09;37.20;36.70
65072;DHT22;51663;52.310;17.016;2022-08-21T09:00:13;37.00;37.40
65072;DHT22;51663;52.310;17.016;2022-08-21T09:03:18;37.10;36.90
65072;DHT22;51663;52.310;17.016;2022-08-21T09:17:01;37.00;37.50
65072;DHT22;51663;52.310;17.016;2022-08-21T09:27:32;37.10;37.50
65072;DHT22;51663;52.310;17.016;2022-08-21T09:30:34;37.30;38.00
65072;DHT22;51663;52.310;17.016;2022-08-21T09:33:36;37.10;37.50
65072;DHT22;51663;52.310;17.016;2022-08-21T09:36:46;37.20;36.90
65072;DHT22;51663;52.310;17.016;2022-08-21T09:39:49;37.40;37.20
65072;DHT22;51663;52.310;17.016;2022-08-21T09:42:56;37.40;37.00
65072;DHT22;51663;52.310;17.016;2022-08-21T09:46:11;37.60;36.60
65072;DHT22;51663;52.310;17.016;2022-08-21T09:49:30;37.30;37.10
65072;DHT22;51663;52.310;17.016;2022-08-21T09:52:33;37.50;37.00
65072;DHT22;51663;52.310;17.016;2022-08-21T09:55:39;37.40;37.00
65072;DHT22;51663;52.310;17.016;2022-08-21T09:59:39;37.50;37.80
65072;DHT22;51663;52.310;17.016;2022-08-21T10:02:40;37.40;37.20
65072;DHT22;51663;52.310;17.016;2022-08-21T10:05:55;37.50;37.00
65072;DHT22;51663;52.310;17.016;2022-08-21T10:12:21;37.50;37.20
65072;DHT22;51663;52.310;17.016;2022-08-21T10:22:31;37.50;36.90
65072;DHT22;51663;52.310;17.016;2022-08-21T10:25:44;37.40;37.40
65072;DHT22;51663;52.310;17.016;2022-08-21T10:29:53;37.50;37.20
65072;DHT22;51663;52.310;17.016;2022-08-21T10:36:14;37.50;37.60
65072;DHT22;51663;52.310;17.016;2022-08-21T10:39:39;37.60;37.30
65072;DHT22;51663;52.310;17.016;2022-08-21T10:43:02;37.60;37.50
65072;DHT22;51663;52.310;17.016;2022-08-21T10:59:34;37.90;37.90
65072;DHT22;51663;52.310;17.016;2022-08-21T11:06:16;37.30;38.60
65072;DHT22;51663;52.310;17.016;2022-08-21T11:09:21;37.10;38.70
65072;DHT22;51663;52.310;17.016;2022-08-21T11:12:46;36.80;39.30
65072;DHT22;51663;52.310;17.016;2022-08-21T11:16:14;36.80;39.40
65072;DHT22;51663;52.310;17.016;2022-08-21T11:19:22;36.60;39.70
65072;DHT22;51663;52.310;17.016;2022-08-21T11:22:56;36.90;39.90
65072;DHT22;51663;52.310;17.016;2022-08-21T11:26:15;36.70;40.00
65072;DHT22;51663;52.310;17.016;2022-08-21T11:29:29;36.20;40.30
65072;DHT22;51663;52.310;17.016;2022-08-21T11:35:49;35.60;42.00
65072;DHT22;51663;52.310;17.016;2022-08-21T11:39:26;35.20;42.10
65072;DHT22;51663;52.310;17.016;2022-08-21T11:46:03;35.40;42.10
65072;DHT22;51663;52.310;17.016;2022-08-21T11:56:09;36.40;40.20
65072;DHT22;51663;52.310;17.016;2022-08-21T11:59:19;36.40;40.40
65072;DHT22;51663;52.310;17.016;2022-08-21T12:02:28;36.60;40.10
65072;DHT22;51663;52.310;17.016;2022-08-21T12:05:33;36.70;39.40
65072;DHT22;51663;52.310;17.016;2022-08-21T12:08:42;36.60;39.80
65072;DHT22;51663;52.310;17.016;2022-08-21T12:11:59;36.70;39.60
65072;DHT22;51663;52.310;17.016;2022-08-21T12:15:13;36.60;39.40
65072;DHT22;51663;52.310;17.016;2022-08-21T12:18:23;36.60;39.70
65072;DHT22;51663;52.310;17.016;2022-08-21T12:21:29;35.80;40.50
65072;DHT22;51663;52.310;17.016;2022-08-21T12:24:40;35.60;41.70
65072;DHT22;51663;52.310;17.016;2022-08-21T12:27:50;35.90;41.10
65072;DHT22;51663;52.310;17.016;2022-08-21T12:30:53;36.00;40.70
65072;DHT22;51663;52.310;17.016;2022-08-21T12:34:01;36.40;40.30
65072;DHT22;51663;52.310;17.016;2022-08-21T12:37:16;36.50;40.10
65072;DHT22;51663;52.310;17.016;2022-08-21T12:40:23;36.60;39.30
65072;DHT22;51663;52.310;17.016;2022-08-21T12:43:29;36.60;39.70
65072;DHT22;51663;52.310;17.016;2022-08-21T12:46:42;36.60;39.70
65072;DHT22;51663;52.310;17.016;2022-08-21T12:53:29;36.60;39.50
65072;DHT22;51663;52.310;17.016;2022-08-21T12:56:33;36.50;39.10
65072;DHT22;51663;52.310;17.016;2022-08-21T12:59:38;36.10;39.80
65072;DHT22;51663;52.310;17.016;2022-08-21T13:02:48;36.20;40.00
65072;DHT22;51663;52.310;17.016;2022-08-21T13:05:51;35.70;40.00
65072;DHT22;51663;52.310;17.016;2022-08-21T13:08:58;35.50;40.20
65072;DHT22;51663;52.310;17.016;2022-08-21T13:12:07;35.30;40.50
65072;DHT22;51663;52.310;17.016;2022-08-21T13:15:11;34.90;40.40
65072;DHT22;51663;52.310;17.016;2022-08-21T13:18:22;35.10;41.10
65072;DHT22;51663;52.310;17.016;2022-08-21T13:21:31;34.90;40.50
65072;DHT22;51663;52.310;17.016;2022-08-21T13:24:35;35.20;40.50
65072;DHT22;51663;52.310;17.016;2022-08-21T13:27:58;35.70;39.60
65072;DHT22;51663;52.310;17.016;2022-08-21T13:31:01;35.80;39.00
65072;DHT22;51663;52.310;17.016;2022-08-21T13:34:06;35.70;39.40
65072;DHT22;51663;52.310;17.016;2022-08-21T13:37:14;35.80;39.30
65072;DHT22;51663;52.310;17.016;2022-08-21T13:40:20;35.20;39.50
65072;DHT22;51663;52.310;17.016;2022-08-21T13:43:30;35.00;40.20
65072;DHT22;51663;52.310;17.016;2022-08-21T13:46:35;35.10;40.10
65072;DHT22;51663;52.310;17.016;2022-08-21T13:49:47;35.10;40.30
65072;DHT22;51663;52.310;17.016;2022-08-21T13:53:28;35.20;40.20
65072;DHT22;51663;52.310;17.016;2022-08-21T13:56:42;35.30;40.00
65072;DHT22;51663;52.310;17.016;2022-08-21T13:59:45;35.10;40.50
65072;DHT22;51663;52.310;17.016;2022-08-21T14:02:49;35.30;40.20
65072;DHT22;51663;52.310;17.016;2022-08-21T14:05:53;35.20;40.00
65072;DHT22;51663;52.310;17.016;2022-08-21T14:08:58;35.10;40.30
65072;DHT22;51663;52.310;17.016;2022-08-21T14:12:13;35.30;40.20
65072;DHT22;51663;52.310;17.016;2022-08-21T14:15:33;34.90;39.80
65072;DHT22;51663;52.310;17.016;2022-08-21T14:18:44;34.60;38.90
65072;DHT22;51663;52.310;17.016;2022-08-21T14:21:47;34.30;40.00
65072;DHT22;51663;52.310;17.016;2022-08-21T14:24:49;34.40;39.90
65072;DHT22;51663;52.310;17.016;2022-08-21T14:31:21;33.90;40.30
65072;DHT22;51663;52.310;17.016;2022-08-21T14:34:28;33.40;41.40
65072;DHT22;51663;52.310;17.016;2022-08-21T14:37:36;33.20;42.20
65072;DHT22;51663;52.310;17.016;2022-08-21T14:40:38;33.00;42.00
65072;DHT22;51663;52.310;17.016;2022-08-21T14:43:41;32.80;42.70
65072;DHT22;51663;52.310;17.016;2022-08-21T14:46:43;33.00;42.50
65072;DHT22;51663;52.310;17.016;2022-08-21T14:49:57;33.30;42.50
65072;DHT22;51663;52.310;17.016;2022-08-21T14:53:00;33.70;42.00
65072;DHT22;51663;52.310;17.016;2022-08-21T14:56:12;33.80;42.00
65072;DHT22;51663;52.310;17.016;2022-08-21T14:59:18;33.60;42.30
65072;DHT22;51663;52.310;17.016;2022-08-21T15:02:21;33.90;41.90
65072;DHT22;51663;52.310;17.016;2022-08-21T15:05:23;33.70;42.20
65072;DHT22;51663;52.310;17.016;2022-08-21T15:08:34;33.70;41.40
65072;DHT22;51663;52.310;17.016;2022-08-21T15:11:36;32.70;41.80
65072;DHT22;51663;52.310;17.016;2022-08-21T15:14:44;32.50;42.80
65072;DHT22;51663;52.310;17.016;2022-08-21T15:17:46;32.60;42.80
65072;DHT22;51663;52.310;17.016;2022-08-21T15:20:50;32.80;42.40
65072;DHT22;51663;52.310;17.016;2022-08-21T15:23:52;32.80;42.00
65072;DHT22;51663;52.310;17.016;2022-08-21T15:26:56;32.60;42.50
65072;DHT22;51663;52.310;17.016;2022-08-21T15:29:58;33.00;42.00
65072;DHT22;51663;52.310;17.016;2022-08-21T15:33:00;32.80;41.80
65072;DHT22;51663;52.310;17.016;2022-08-21T15:36:03;33.00;41.40
65072;DHT22;51663;52.310;17.016;2022-08-21T15:39:05;32.80;40.70
65072;DHT22;51663;52.310;17.016;2022-08-21T15:42:09;32.70;41.20
65072;DHT22;51663;52.310;17.016;2022-08-21T15:45:13;32.70;41.70
65072;DHT22;51663;52.310;17.016;2022-08-21T15:48:15;32.90;41.60
65072;DHT22;51663;52.310;17.016;2022-08-21T15:51:18;33.50;40.70
65072;DHT22;51663;52.310;17.016;2022-08-21T15:54:20;33.40;40.90
65072;DHT22;51663;52.310;17.016;2022-08-21T15:57:23;33.70;40.70
65072;DHT22;51663;52.310;17.016;2022-08-21T16:00:26;33.50;40.90
65072;DHT22;51663;52.310;17.016;2022-08-21T16:03:30;33.90;40.40
65072;DHT22;51663;52.310;17.016;2022-08-21T16:06:32;33.90;39.90
65072;DHT22;51663;52.310;17.016;2022-08-21T16:09:55;33.60;40.10
65072;DHT22;51663;52.310;17.016;2022-08-21T16:13:03;33.20;40.80
65072;DHT22;51663;52.310;17.016;2022-08-21T16:16:05;33.10;41.30
65072;DHT22;51663;52.310;17.016;2022-08-21T16:19:08;33.40;40.70
65072;DHT22;51663;52.310;17.016;2022-08-21T16:22:12;33.50;40.50
65072;DHT22;51663;52.310;17.016;2022-08-21T16:25:15;33.50;40.40
65072;DHT22;51663;52.310;17.016;2022-08-21T16:28:20;33.20;40.60
65072;DHT22;51663;52.310;17.016;2022-08-21T16:31:23;33.30;41.30
65072;DHT22;51663;52.310;17.016;2022-08-21T16:34:26;33.20;40.80
65072;DHT22;51663;52.310;17.016;2022-08-21T16:37:29;33.20;41.00
65072;DHT22;51663;52.310;17.016;2022-08-21T16:40:31;33.40;40.50
65072;DHT22;51663;52.310;17.016;2022-08-21T16:43:34;33.10;40.20
65072;DHT22;51663;52.310;17.016;2022-08-21T16:46:39;33.30;40.30
65072;DHT22;51663;52.310;17.016;2022-08-21T16:49:41;33.40;40.50
65072;DHT22;51663;52.310;17.016;2022-08-21T16:52:44;33.30;40.30
65072;DHT22;51663;52.310;17.016;2022-08-21T16:55:46;33.20;40.60
65072;DHT22;51663;52.310;17.016;2022-08-21T16:58:50;33.10;40.60
65072;DHT22;51663;52.310;17.016;2022-08-21T17:01:54;33.40;40.60
65072;DHT22;51663;52.310;17.016;2022-08-21T17:04:56;33.50;40.20
65072;DHT22;51663;52.310;17.016;2022-08-21T17:07:58;33.40;40.20
65072;DHT22;51663;52.310;17.016;2022-08-21T17:11:01;33.50;39.90
65072;DHT22;51663;52.310;17.016;2022-08-21T17:14:07;33.50;40.10
65072;DHT22;51663;52.310;17.016;2022-08-21T17:17:13;33.50;40.00
65072;DHT22;51663;52.310;17.016;2022-08-21T17:20:16;33.40;39.80
65072;DHT22;51663;52.310;17.016;2022-08-21T17:23:19;33.40;40.50
65072;DHT22;51663;52.310;17.016;2022-08-21T17:26:25;33.10;40.70
65072;DHT22;51663;52.310;17.016;2022-08-21T17:29:32;33.40;40.50
65072;DHT22;51663;52.310;17.016;2022-08-21T17:32:36;33.50;40.60
65072;DHT22;51663;52.310;17.016;2022-08-21T17:35:39;33.30;40.40
65072;DHT22;51663;52.310;17.016;2022-08-21T17:38:46;33.40;40.60
65072;DHT22;51663;52.310;17.016;2022-08-21T17:41:50;33.60;40.10
65072;DHT22;51663;52.310;17.016;2022-08-21T17:44:59;33.50;40.50
65072;DHT22;51663;52.310;17.016;2022-08-21T17:48:02;33.60;40.30
65072;DHT22;51663;52.310;17.016;2022-08-21T17:51:08;33.40;40.80
65072;DHT22;51663;52.310;17.016;2022-08-21T17:54:14;33.50;40.60
65072;DHT22;51663;52.310;17.016;2022-08-21T17:57:19;33.90;40.20
65072;DHT22;51663;52.310;17.016;2022-08-21T18:00:25;33.90;40.00
65072;DHT22;51663;52.310;17.016;2022-08-21T18:03:27;33.90;40.10
65072;DHT22;51663;52.310;17.016;2022-08-21T18:06:33;33.60;40.70
65072;DHT22;51663;52.310;17.016;2022-08-21T18:09:35;33.80;40.40
65072;DHT22;51663;52.310;17.016;2022-08-21T18:12:39;33.50;40.90
65072;DHT22;51663;52.310;17.016;2022-08-21T18:15:49;33.80;40.60
65072;DHT22;51663;52.310;17.016;2022-08-21T18:18:53;33.70;41.20
65072;DHT22;51663;52.310;17.016;2022-08-21T18:21:55;33.90;40.80
65072;DHT22;51663;52.310;17.016;2022-08-21T18:25:03;34.00;40.60
65072;DHT22;51663;52.310;17.016;2022-08-21T18:28:07;33.60;40.70
65072;DHT22;51663;52.310;17.016;2022-08-21T18:31:11;33.70;40.80
65072;DHT22;51663;52.310;17.016;2022-08-21T18:34:24;33.20;40.90
65072;DHT22;51663;52.310;17.016;2022-08-21T18:37:27;32.90;40.80
65072;DHT22;51663;52.310;17.016;2022-08-21T18:40:32;32.70;40.50
65072;DHT22;51663;52.310;17.016;2022-08-21T18:43:36;32.60;40.60
65072;DHT22;51663;52.310;17.016;2022-08-21T18:46:41;33.00;39.80
65072;DHT22;51663;52.310;17.016;2022-08-21T18:49:45;32.80;39.70
65072;DHT22;51663;52.310;17.016;2022-08-21T18:52:48;32.80;40.30
65072;DHT22;51663;52.310;17.016;2022-08-21T18:55:55;32.90;40.00
65072;DHT22;51663;52.310;17.016;2022-08-21T18:58:59;33.40;39.50
65072;DHT22;51663;52.310;17.016;2022-08-21T19:02:01;33.40;39.30
65072;DHT22;51663;52.310;17.016;2022-08-21T19:05:10;33.30;39.20
65072;DHT22;51663;52.310;17.016;2022-08-21T19:08:15;33.40;39.40
65072;DHT22;51663;52.310;17.016;2022-08-21T19:11:18;33.60;38.90
65072;DHT22;51663;52.310;17.016;2022-08-21T19:14:24;33.80;38.30
65072;DHT22;51663;52.310;17.016;2022-08-21T19:17:27;33.80;38.00
65072;DHT22;51663;52.310;17.016;2022-08-21T19:20:32;33.90;38.40
65072;DHT22;51663;52.310;17.016;2022-08-21T19:23:37;33.70;38.10
65072;DHT22;51663;52.310;17.016;2022-08-21T19:26:43;33.50;38.50
65072;DHT22;51663;52.310;17.016;2022-08-21T19:29:45;33.60;38.30
65072;DHT22;51663;52.310;17.016;2022-08-21T19:32:48;33.40;38.50
65072;DHT22;51663;52.310;17.016;2022-08-21T19:35:52;33.40;38.90
65072;DHT22;51663;52.310;17.016;2022-08-21T19:38:54;33.70;38.70
65072;DHT22;51663;52.310;17.016;2022-08-21T19:41:57;34.00;37.80
65072;DHT22;51663;52.310;17.016;2022-08-21T19:45:02;34.00;37.80
65072;DHT22;51663;52.310;17.016;2022-08-21T19:48:05;34.00;37.30
65072;DHT22;51663;52.310;17.016;2022-08-21T19:51:07;33.80;37.90
65072;DHT22;51663;52.310;17.016;2022-08-21T19:54:20;33.80;37.50
65072;DHT22;51663;52.310;17.016;2022-08-21T19:57:23;33.70;37.70
65072;DHT22;51663;52.310;17.016;2022-08-21T20:00:26;34.10;37.30
65072;DHT22;51663;52.310;17.016;2022-08-21T20:03:32;34.40;36.70
65072;DHT22;51663;52.310;17.016;2022-08-21T20:06:35;34.80;36.20
65072;DHT22;51663;52.310;17.016;2022-08-21T20:09:39;35.00;35.80
65072;DHT22;51663;52.310;17.016;2022-08-21T20:12:42;35.10;35.70
65072;DHT22;51663;52.310;17.016;2022-08-21T20:15:46;35.30;35.80
65072;DHT22;51663;52.310;17.016;2022-08-21T20:18:50;35.30;35.90
65072;DHT22;51663;52.310;17.016;2022-08-21T20:21:52;35.60;35.20